• Join FlightAware (Why Join?)
  • Login
  • US Flag 
05:37PM EST


 

Airport Tracker/Info


-or-


 

Live Flight TrackerFlight Track Log ✈ CTL18 ✈ 01-May-2013 ✈ KMBS - KYIP

Flight Track Log - Related Links

Times and Time Zones

All times are in EDT time to prevent confusion due to time zone crossing. See the CTL18 flight status page for this flight to view local times or setup timezone preferences in your user account.

Time Position Orientation Groundspeed Altitude Reporting Facility
EDT Latitude Longitude Course Direction KTS MPH feet Rate Location/Type
07:47PM 43.3904 -84.0180 160° South  Level Estimated
07:48PM 43.3637 -83.9994 153° Southeast  Level FlightAware Approximate
07:49PM 43.3371 -83.9809 153° Southeast  Level FlightAware Approximate
07:50PM 43.3085 -83.9689 160° South  Level Estimated
07:51PM 43.2809 -83.9532 157° South  Level FlightAware Approximate
07:52PM 43.2533 -83.9375 157° South  Level FlightAware Approximate
07:53PM 43.2246 -83.9258 163° South  Level Estimated
07:54PM 43.1964 -83.9124 161° South  Level FlightAware Approximate
07:55PM 43.1682 -83.8990 161° South  Level FlightAware Approximate
07:56PM 43.1399 -83.8856 161° South  Level FlightAware Approximate
07:57PM 43.1113 -83.8741 160° South  Level Estimated
07:57PM 42.9428 -83.7939 162° South 149 171 5,100  Level Cleveland Center
07:58PM 43.0832 -83.8599 160° South  Level FlightAware Approximate
07:58PM 42.9039 -83.7719 158° South 152 175 5,000  Level Cleveland Center
07:59PM 43.0552 -83.8456 160° South  Level FlightAware Approximate
07:59PM 42.8689 -83.7503 156° South 150 173 5,000  Level Cleveland Center
08:00PM 43.0272 -83.8314 160° South  Level FlightAware Approximate
08:00PM 42.8217 -83.7311 163° South 150 173 5,000  Level Cleveland Center
08:01PM 42.9992 -83.8172 160° South  Level FlightAware Approximate
08:01PM 42.7781 -83.7175 167° South 150 173 5,000  Level Cleveland Center
08:02PM 42.7369 -83.7014 164° South 150 173 5,100  Climbing Cleveland Center
08:03PM 42.6956 -83.6881 167° South 151 174 5,000  Descending Cleveland Center
08:04PM 42.6542 -83.6747 167° South 149 171 5,100 -60 Climbing Cleveland Center
08:05PM 42.6131 -83.6586 164° South 153 176 4,900 -180 Descending Cleveland Center
08:06PM 42.5758 -83.6481 168° South 156 180 4,800 -240 Descending Cleveland Center
08:07PM 42.5303 -83.6347 168° South 163 188 4,500 -300 Descending Cleveland Center
08:08PM 42.4786 -83.6153 164° South 164 189 4,200 -360 Descending Cleveland Center
08:09PM 42.4394 -83.5994 163° South 168 193 3,800 -420 Descending Cleveland Center
08:10PM 42.3961 -83.5833 165° South 168 193 3,400 -540 Descending Cleveland Center
08:11PM 42.3486 -83.5642 163° South 167 192 2,800 -660 Descending Cleveland Center
08:12PM 42.3014 -83.5367 157° South 165 190 2,100 -660 Descending Cleveland Center
08:13PM 42.2664 -83.5153 156° South 142 163 1,500 -660 Descending Cleveland Center
08:15PM 42.2333 -83.5167 160° South  Level FlightAware Approximate
08:22PM 42.2393 -83.5310 160° South  Level Estimated
08:23PM 42.2393 -83.5310 160° South  Level Estimated